createdAt,value
2018-03-14T00:01:49.198Z,4.40
2018-03-14T00:04:17.814Z,4.30
2018-03-14T00:06:46.379Z,4.50
2018-03-14T00:09:14.940Z,4.30
2018-03-14T00:11:43.487Z,4.30
2018-03-14T00:14:12.068Z,4.50
2018-03-14T00:16:40.613Z,4.40
2018-03-14T00:19:09.155Z,4.50
2018-03-14T00:21:38.532Z,4.40
2018-03-14T00:24:08.260Z,4.50
2018-03-14T00:26:36.795Z,4.50
2018-03-14T00:29:05.352Z,4.50
2018-03-14T00:31:33.923Z,4.50
2018-03-14T00:34:03.236Z,4.50
2018-03-14T00:36:31.872Z,4.60
2018-03-14T00:39:00.430Z,4.40
2018-03-14T00:41:28.968Z,4.50
2018-03-14T00:43:58.335Z,4.10
2018-03-14T00:46:26.980Z,4.50
2018-03-14T00:48:55.519Z,4.50
2018-03-14T00:51:24.088Z,4.40
2018-03-14T00:53:52.707Z,4.50
2018-03-14T00:56:21.260Z,4.40
2018-03-14T01:06:21.574Z,4.50
2018-03-14T01:19:00.838Z,4.50
2018-03-14T01:21:29.483Z,4.50
2018-03-14T01:24:03.656Z,4.60
2018-03-14T01:29:05.926Z,4.60
2018-03-14T01:31:37.131Z,4.60
2018-03-14T01:34:07.600Z,4.60
2018-03-14T01:36:37.317Z,4.60
2018-03-14T02:06:47.202Z,4.10
2018-03-14T02:09:15.788Z,4.00
2018-03-14T02:11:44.318Z,4.00
2018-03-14T02:14:12.910Z,4.00
2018-03-14T02:16:41.514Z,4.00
2018-03-14T02:19:10.055Z,3.80
2018-03-14T02:21:39.367Z,3.70
2018-03-14T02:24:08.868Z,3.70
2018-03-14T02:26:38.164Z,3.70
2018-03-14T02:29:07.473Z,3.70
2018-03-14T02:31:36.059Z,3.70
2018-03-14T02:34:05.366Z,3.70
2018-03-14T02:52:35.472Z,3.70
2018-03-14T02:55:03.476Z,3.70
2018-03-14T02:57:31.836Z,3.50
2018-03-14T03:15:13.901Z,3.30
2018-03-14T03:17:43.144Z,3.30
2018-03-14T03:20:11.566Z,3.30
2018-03-14T03:22:39.901Z,3.30
2018-03-14T03:25:08.633Z,3.30
2018-03-14T03:27:37.770Z,3.20
2018-03-14T03:30:06.113Z,3.20
2018-03-14T03:32:35.251Z,3.20
2018-03-14T03:35:03.748Z,3.20
2018-03-14T03:37:32.105Z,3.10
2018-03-14T03:40:00.485Z,3.00
2018-03-14T03:42:28.855Z,2.90
2018-03-14T03:44:57.214Z,2.90
2018-03-14T03:47:25.596Z,2.90
2018-03-14T03:49:54.006Z,2.90
2018-03-14T03:52:22.354Z,2.90
2018-03-14T03:54:50.788Z,2.90
2018-03-14T03:57:19.155Z,2.90
2018-03-14T03:59:47.559Z,2.90
2018-03-14T04:02:16.922Z,3.00
2018-03-14T04:04:45.268Z,3.00
2018-03-14T04:07:13.627Z,3.00
2018-03-14T04:09:42.773Z,3.10
2018-03-14T04:12:11.122Z,3.00
2018-03-14T04:14:39.497Z,3.00
2018-03-14T04:17:09.096Z,2.90
2018-03-14T04:19:37.453Z,2.90
2018-03-14T04:22:05.788Z,3.00
2018-03-14T04:24:34.160Z,3.00
2018-03-14T04:27:02.520Z,3.00
2018-03-14T04:29:30.888Z,2.90
2018-03-14T04:31:59.261Z,2.90
2018-03-14T04:34:28.421Z,2.90
2018-03-14T04:36:56.763Z,2.80
2018-03-14T04:39:25.452Z,2.80
2018-03-14T04:41:53.809Z,2.70
2018-03-14T04:44:22.160Z,2.70
2018-03-14T04:46:51.296Z,2.60
2018-03-14T04:49:19.647Z,2.60
2018-03-14T04:51:48.748Z,2.60
2018-03-14T04:54:17.127Z,2.60
2018-03-14T04:56:45.509Z,2.60
2018-03-14T04:59:13.862Z,2.60
2018-03-14T05:01:43.002Z,2.50
2018-03-14T05:04:11.441Z,2.50
2018-03-14T05:06:40.545Z,2.40
2018-03-14T05:09:09.217Z,2.40
2018-03-14T05:11:38.361Z,2.40
2018-03-14T05:14:06.716Z,2.40
2018-03-14T05:16:35.076Z,2.40
2018-03-14T05:19:04.189Z,2.50
2018-03-14T05:21:32.600Z,2.40
2018-03-14T05:24:00.962Z,2.50
2018-03-14T05:26:29.636Z,2.50
2018-03-14T05:28:58.004Z,2.50
2018-03-14T05:31:26.356Z,2.60
2018-03-14T05:33:55.468Z,2.60
2018-03-14T05:36:23.842Z,2.60
2018-03-14T05:38:52.947Z,2.60
2018-03-14T05:41:21.323Z,2.60
2018-03-14T05:43:49.664Z,2.60
2018-03-14T05:46:18.009Z,2.60
2018-03-14T05:48:46.388Z,2.60
2018-03-14T05:51:14.741Z,2.60
2018-03-14T05:53:43.107Z,2.60
2018-03-14T05:56:11.463Z,2.70
2018-03-14T05:58:39.808Z,2.70
2018-03-14T06:01:08.181Z,2.70
2018-03-14T06:03:36.612Z,2.70
2018-03-14T06:06:05.720Z,2.70
2018-03-14T06:08:34.096Z,2.70
2018-03-14T06:11:02.432Z,2.70
2018-03-14T06:13:30.807Z,2.80
2018-03-14T06:15:59.220Z,2.80
2018-03-14T06:18:28.327Z,2.70
2018-03-14T06:20:56.694Z,2.70
2018-03-14T06:23:26.011Z,2.70
2018-03-14T06:25:54.376Z,2.70
2018-03-14T06:28:23.495Z,2.80
2018-03-14T06:30:51.663Z,2.80
2018-03-14T06:33:20.020Z,2.90
2018-03-14T06:35:48.484Z,2.90
2018-03-14T06:38:17.644Z,3.10
2018-03-14T06:40:45.999Z,3.10
2018-03-14T06:43:14.339Z,3.20
2018-03-14T06:45:43.464Z,3.40
2018-03-14T06:48:11.825Z,3.40
2018-03-14T06:50:40.953Z,3.50
2018-03-14T06:53:09.314Z,3.50
2018-03-14T06:55:37.741Z,3.70
2018-03-14T06:58:06.287Z,3.80
2018-03-14T07:00:46.009Z,3.90
2018-03-14T07:03:25.676Z,4.00
2018-03-14T07:06:14.405Z,4.10
2018-03-14T07:08:42.794Z,4.20
2018-03-14T07:11:11.153Z,4.40
2018-03-14T07:13:40.269Z,4.70
2018-03-14T07:16:08.305Z,4.60
2018-03-14T07:18:36.660Z,4.90
2018-03-14T07:21:04.682Z,5.00
2018-03-14T07:23:33.076Z,5.10
2018-03-14T07:26:01.423Z,5.30
2018-03-14T07:28:30.656Z,5.50
2018-03-14T07:30:59.033Z,5.50
2018-03-14T07:33:27.400Z,5.60
2018-03-14T07:35:55.743Z,5.70
2018-03-14T07:38:24.889Z,6.00
2018-03-14T07:40:53.449Z,6.00
2018-03-14T07:43:21.789Z,6.10
2018-03-14T07:45:50.158Z,6.30
2018-03-14T07:48:18.516Z,6.40
2018-03-14T07:50:46.852Z,6.60
2018-03-14T07:53:15.253Z,6.80
2018-03-14T07:55:43.609Z,6.90
2018-03-14T07:58:11.955Z,7.10
2018-03-14T08:00:40.330Z,7.20
2018-03-14T08:03:08.689Z,7.20
2018-03-14T08:05:37.032Z,7.20
2018-03-14T08:08:05.405Z,7.30
2018-03-14T08:10:33.811Z,7.30
2018-03-14T08:13:02.260Z,7.40
2018-03-14T08:15:30.632Z,7.40
2018-03-14T08:17:59.741Z,7.60
2018-03-14T08:20:28.409Z,7.70
2018-03-14T08:22:57.540Z,7.70
2018-03-14T08:25:25.892Z,7.70
2018-03-14T08:27:55.152Z,7.80
2018-03-14T08:30:24.565Z,7.90
2018-03-14T08:32:54.261Z,7.90
2018-03-14T08:35:23.437Z,7.80
2018-03-14T08:37:51.861Z,7.80
2018-03-14T08:40:20.964Z,8.00
2018-03-14T08:42:49.334Z,8.00
2018-03-14T08:45:18.434Z,7.40
2018-03-14T08:47:47.579Z,7.00
2018-03-14T08:50:15.951Z,7.00
2018-03-14T08:52:44.505Z,7.30
2018-03-14T08:55:12.864Z,7.80
2018-03-14T08:57:41.975Z,8.00
2018-03-14T09:00:10.708Z,8.00
2018-03-14T09:02:39.060Z,8.40
2018-03-14T09:05:07.403Z,8.60
2018-03-14T09:07:36.598Z,8.80
2018-03-14T09:10:05.704Z,8.70
2018-03-14T09:12:33.971Z,8.70
2018-03-14T09:15:03.077Z,10.60
2018-03-14T09:17:31.437Z,10.60
2018-03-14T09:20:00.544Z,11.30
2018-03-14T09:22:28.562Z,11.30
2018-03-14T09:24:57.352Z,11.00
2018-03-14T09:27:25.727Z,10.70
2018-03-14T09:29:54.067Z,10.50
2018-03-14T09:32:22.428Z,10.40
2018-03-14T09:34:50.776Z,10.30
2018-03-14T09:37:19.164Z,10.10
2018-03-14T09:39:47.714Z,10.20
2018-03-14T09:42:17.015Z,10.10
2018-03-14T09:44:45.364Z,10.10
2018-03-14T09:47:13.737Z,10.20
2018-03-14T09:49:42.119Z,10.20
2018-03-14T09:52:10.474Z,9.70
2018-03-14T09:54:38.814Z,9.10
2018-03-14T09:57:07.200Z,9.50
2018-03-14T09:59:35.725Z,9.50
2018-03-14T10:02:03.749Z,9.90
2018-03-14T10:04:32.096Z,10.20
2018-03-14T10:07:00.455Z,10.00
2018-03-14T10:09:28.810Z,9.90
2018-03-14T10:11:58.115Z,10.30
2018-03-14T10:14:27.339Z,10.80
2018-03-14T10:16:55.687Z,10.80
2018-03-14T10:19:24.800Z,11.90
2018-03-14T10:21:53.193Z,11.90
2018-03-14T10:24:21.733Z,12.70
2018-03-14T10:26:50.095Z,13.20
2018-03-14T10:29:18.437Z,13.90
2018-03-14T10:31:46.777Z,14.50
2018-03-14T10:34:15.902Z,14.70
2018-03-14T10:36:44.303Z,14.70
2018-03-14T10:39:12.796Z,15.00
2018-03-14T10:41:41.138Z,14.90
2018-03-14T10:44:09.472Z,14.80
2018-03-14T10:46:37.832Z,14.70
2018-03-14T10:49:06.176Z,14.70
2018-03-14T10:51:34.535Z,13.00
2018-03-14T10:54:02.912Z,13.40
2018-03-14T10:56:31.271Z,14.10
2018-03-14T10:59:00.384Z,13.70
2018-03-14T11:14:49.333Z,10.60
2018-03-14T11:17:17.689Z,11.30
2018-03-14T11:19:46.809Z,12.50
2018-03-14T11:22:15.176Z,12.50
2018-03-14T11:24:43.561Z,11.90
2018-03-14T11:27:11.905Z,11.20
2018-03-14T11:29:40.316Z,10.40
2018-03-14T11:32:08.656Z,11.00
2018-03-14T11:34:37.018Z,10.50
2018-03-14T11:37:05.376Z,10.10
2018-03-14T11:39:34.486Z,9.70
2018-03-14T11:42:02.899Z,9.70
2018-03-14T11:44:32.050Z,10.20
2018-03-14T11:47:00.404Z,10.20
2018-03-14T11:49:28.750Z,10.40
2018-03-14T11:51:57.861Z,11.00
2018-03-14T11:54:26.988Z,11.20
2018-03-14T11:56:55.336Z,11.30
2018-03-14T11:59:23.667Z,11.70
2018-03-14T12:01:52.136Z,11.80
2018-03-14T12:04:20.480Z,13.10
2018-03-14T12:06:48.846Z,13.30
2018-03-14T12:09:17.953Z,13.20
2018-03-14T12:11:46.324Z,13.20
2018-03-14T12:14:14.721Z,12.90
2018-03-14T12:16:43.189Z,12.50
2018-03-14T12:19:11.550Z,12.20
2018-03-14T12:21:40.653Z,13.40
2018-03-14T12:24:09.441Z,13.40
2018-03-14T12:26:37.810Z,13.80
2018-03-14T12:29:07.031Z,13.40
2018-03-14T12:31:35.667Z,13.30
2018-03-14T12:34:04.011Z,12.60
2018-03-14T12:36:32.351Z,12.30
2018-03-14T12:39:00.699Z,12.30
2018-03-14T12:41:29.846Z,11.50
2018-03-14T12:43:58.202Z,11.50
2018-03-14T12:46:27.419Z,11.70
2018-03-14T12:48:55.860Z,11.60
2018-03-14T12:51:24.996Z,11.30
2018-03-14T12:53:54.524Z,11.30
2018-03-14T12:56:22.890Z,11.20
2018-03-14T12:58:51.223Z,11.40
2018-03-14T13:01:20.001Z,12.20
2018-03-14T13:03:49.143Z,12.80
2018-03-14T13:06:17.482Z,12.80
2018-03-14T13:08:46.631Z,13.70
2018-03-14T13:11:15.790Z,13.60
2018-03-14T13:13:44.200Z,13.50
2018-03-14T13:18:47.795Z,13.40
2018-03-14T13:21:16.794Z,13.40
2018-03-14T13:23:45.482Z,13.20
2018-03-14T13:26:15.904Z,12.70
2018-03-14T13:28:44.287Z,13.20
2018-03-14T13:31:12.729Z,14.10
2018-03-14T13:33:41.191Z,13.80
2018-03-14T13:36:09.534Z,13.80
2018-03-14T13:38:38.082Z,13.70
2018-03-14T13:41:07.208Z,13.00
2018-03-14T13:43:36.568Z,13.00
2018-03-14T13:46:05.719Z,12.40
2018-03-14T13:48:34.072Z,12.40
2018-03-14T13:51:02.432Z,12.40
2018-03-14T13:53:31.191Z,12.60
2018-03-14T13:55:59.537Z,12.20
2018-03-14T13:58:27.901Z,11.90
2018-03-14T14:00:56.295Z,11.80
2018-03-14T14:03:24.674Z,11.50
2018-03-14T14:05:53.039Z,11.40
2018-03-14T14:08:21.375Z,11.60
2018-03-14T14:10:50.511Z,12.30
2018-03-14T14:13:18.860Z,12.20
2018-03-14T14:15:47.226Z,12.30
2018-03-14T14:18:16.436Z,12.20
2018-03-14T14:20:44.825Z,12.10
2018-03-14T14:23:13.486Z,12.00
2018-03-14T14:25:42.643Z,12.00
2018-03-14T14:28:10.987Z,11.90
2018-03-14T14:30:39.158Z,11.80
2018-03-14T14:33:07.492Z,11.60
2018-03-14T14:35:35.995Z,11.60
2018-03-14T14:38:04.148Z,11.80
2018-03-14T14:40:33.277Z,11.70
2018-03-14T14:43:01.620Z,11.70
2018-03-14T14:45:29.968Z,11.50
2018-03-14T14:47:58.370Z,11.60
2018-03-14T14:50:27.003Z,11.70
2018-03-14T14:52:55.340Z,11.60
2018-03-14T14:55:24.493Z,11.80
2018-03-14T14:57:53.112Z,11.80
2018-03-14T15:00:21.500Z,11.70
2018-03-14T15:02:50.606Z,11.20
2018-03-14T15:05:19.712Z,11.40
2018-03-14T15:07:48.118Z,11.40
2018-03-14T15:10:16.447Z,11.80
2018-03-14T15:12:45.583Z,11.60
2018-03-14T15:15:13.913Z,11.50
2018-03-14T15:17:43.072Z,11.40
2018-03-14T15:20:11.529Z,11.40
2018-03-14T15:22:41.138Z,11.20
2018-03-14T15:25:09.912Z,11.20
2018-03-14T15:27:39.014Z,10.90
2018-03-14T15:30:07.356Z,10.90
2018-03-14T15:32:35.723Z,10.80
2018-03-14T15:35:04.075Z,10.90
2018-03-14T15:37:32.509Z,10.70
2018-03-14T15:40:01.663Z,10.70
2018-03-14T15:42:30.039Z,10.60
2018-03-14T15:44:58.413Z,10.60
2018-03-14T15:47:26.765Z,10.70
2018-03-14T15:49:55.128Z,10.60
2018-03-14T15:52:23.472Z,10.50
2018-03-14T15:54:51.819Z,10.80
2018-03-14T15:57:20.180Z,10.70
2018-03-14T15:59:48.363Z,10.70
2018-03-14T16:02:16.727Z,10.80
2018-03-14T16:04:45.057Z,10.80
2018-03-14T16:07:13.400Z,10.60
2018-03-14T16:09:41.595Z,10.50
2018-03-14T16:12:09.954Z,10.30
2018-03-14T16:14:38.333Z,10.20
2018-03-14T16:17:06.352Z,10.20
2018-03-14T16:19:35.477Z,10.10
2018-03-14T16:22:03.853Z,10.10
2018-03-14T16:24:32.195Z,10.00
2018-03-14T16:27:01.340Z,10.10
2018-03-14T16:29:29.360Z,10.10
2018-03-14T16:31:58.471Z,10.00
2018-03-14T16:34:27.805Z,10.10
2018-03-14T16:36:56.149Z,10.10
2018-03-14T16:39:25.265Z,10.10
2018-03-14T16:41:53.618Z,10.10
2018-03-14T16:44:22.728Z,9.80
2018-03-14T16:46:51.091Z,9.80
2018-03-14T16:49:20.220Z,9.70
2018-03-14T16:51:48.600Z,9.70
2018-03-14T16:54:16.936Z,9.70
2018-03-14T16:56:46.041Z,9.70
2018-03-14T16:59:14.402Z,9.60
2018-03-14T17:01:48.255Z,9.70
2018-03-14T17:04:17.102Z,9.60
2018-03-14T17:06:47.993Z,9.60
2018-03-14T17:09:16.469Z,9.60
2018-03-14T17:11:44.933Z,9.60
2018-03-14T17:14:13.321Z,9.50
2018-03-14T17:16:41.711Z,9.50
2018-03-14T17:19:10.413Z,9.40
2018-03-14T17:21:38.783Z,9.30
2018-03-14T17:24:07.148Z,9.30
2018-03-14T17:26:36.616Z,9.00
2018-03-14T17:29:04.994Z,9.00
2018-03-14T17:31:35.071Z,8.80
2018-03-14T17:34:03.563Z,8.80
2018-03-14T17:36:31.989Z,8.80
2018-03-14T17:39:00.373Z,8.70
2018-03-14T17:41:28.717Z,8.60
2018-03-14T17:43:57.880Z,8.60
2018-03-14T17:46:26.225Z,8.60
2018-03-14T17:48:54.607Z,8.50
2018-03-14T17:51:24.348Z,8.40
2018-03-14T17:53:53.745Z,8.40
2018-03-14T18:01:22.315Z,8.10
2018-03-14T18:03:50.369Z,8.10
2018-03-14T18:06:19.504Z,7.90
2018-03-14T18:08:49.062Z,7.90
2018-03-14T18:11:18.226Z,7.80
2018-03-14T18:13:46.720Z,7.80
2018-03-14T18:16:15.401Z,7.80
2018-03-14T18:18:44.699Z,7.70
2018-03-14T18:21:13.292Z,7.80
2018-03-14T18:23:41.638Z,7.70
2018-03-14T18:26:09.975Z,7.60
2018-03-14T18:28:38.345Z,7.60
2018-03-14T18:31:08.164Z,7.40
2018-03-14T20:18:11.723Z,6.20
2018-03-14T20:20:40.093Z,6.20
2018-03-14T20:23:09.251Z,6.10
2018-03-14T20:25:37.592Z,6.00
2018-03-14T20:28:06.003Z,6.00
2018-03-14T20:30:34.390Z,5.90
2018-03-14T20:33:02.764Z,6.00
2018-03-14T20:35:31.154Z,6.00
2018-03-14T20:37:59.532Z,6.00
2018-03-14T20:40:27.904Z,6.00
2018-03-14T20:42:56.263Z,6.00
2018-03-14T20:45:25.761Z,6.10
2018-03-14T20:47:54.160Z,6.10
2018-03-14T20:50:22.528Z,6.10
2018-03-14T20:52:50.932Z,6.10
2018-03-14T20:55:19.358Z,6.20
2018-03-14T20:57:47.701Z,6.30
2018-03-14T21:00:16.042Z,6.40
2018-03-14T21:10:12.644Z,6.50
2018-03-14T21:59:59.856Z,6.10
2018-03-14T22:12:26.200Z,6.00
2018-03-14T22:14:55.312Z,5.90
2018-03-14T22:19:53.240Z,5.80
2018-03-14T22:47:17.028Z,5.80
2018-03-14T22:49:45.565Z,5.80
2018-03-14T22:52:15.429Z,5.60
2018-03-14T22:54:43.432Z,5.60
2018-03-14T22:57:11.797Z,5.60
2018-03-14T22:59:40.248Z,5.60
2018-03-14T23:02:08.597Z,5.50
2018-03-14T23:12:05.104Z,5.60
2018-03-14T23:14:33.471Z,5.60
2018-03-14T23:17:01.895Z,5.50
2018-03-14T23:19:30.237Z,5.50
2018-03-14T23:21:58.601Z,5.50
2018-03-14T23:24:27.912Z,5.50
2018-03-14T23:26:56.256Z,5.50
2018-03-14T23:29:24.625Z,5.50
2018-03-14T23:31:53.063Z,5.40
2018-03-14T23:34:21.448Z,5.50
2018-03-14T23:36:50.937Z,5.50
2018-03-14T23:39:19.530Z,5.50
2018-03-14T23:41:47.890Z,5.60
2018-03-14T23:44:16.223Z,5.50
2018-03-14T23:46:44.662Z,5.40
2018-03-14T23:49:13.008Z,5.40
2018-03-14T23:51:41.384Z,5.40
2018-03-14T23:54:10.164Z,5.40
2018-03-14T23:56:39.292Z,5.40
2018-03-14T23:59:07.702Z,5.40
